Time;durP1;ratioP1;P1;durP2;ratioP2;P2;SDS_P1;SDS_P2;PMS_P1;PMS_P2;Temp;Humidity;BMP_temperature;BMP_pressure;BME280_temperature;BME280_humidity;BME280_pressure;Samples;Min_cycle;Max_cycle;Signal;HPM_P1;HPM_P2
2023/11/13 00:00:22;;;;;;;18.58;14.70;;;;;;;9.05;73.47;94419.56;4212710;28;20411;-69
2023/11/13 00:02:24;;;;;;;18.63;15.73;;;;;;;9.03;73.48;94419.72;4187203;28;20494;-69
2023/11/13 00:04:26;;;;;;;20.95;15.70;;;;;;;9.02;73.35;94416.28;4207235;28;20062;-69
2023/11/13 00:06:28;;;;;;;20.77;15.13;;;;;;;9.02;73.40;94411.06;4197436;28;20661;-68
2023/11/13 00:08:30;;;;;;;18.92;15.70;;;;;;;9.05;73.13;94402.09;4207564;28;20059;-68
2023/11/13 00:10:32;;;;;;;17.38;14.85;;;;;;;9.03;73.12;94409.25;4212274;28;20078;-70
2023/11/13 00:12:34;;;;;;;18.27;15.00;;;;;;;9.00;72.97;94426.06;4210965;28;20434;-69
2023/11/13 00:14:37;;;;;;;21.23;16.37;;;;;;;9.05;73.48;94437.84;4211292;28;20318;-70
2023/11/13 00:16:39;;;;;;;19.77;15.30;;;;;;;9.05;73.15;94432.63;4205543;28;20127;-68
2023/11/13 00:18:43;;;;;;;19.33;16.58;;;;;;;9.02;72.99;94437.19;4210848;28;20048;-70
2023/11/13 00:20:45;;;;;;;18.58;15.93;;;;;;;8.98;72.88;94437.66;4211260;28;20478;-69
2023/11/13 00:22:47;;;;;;;20.23;16.23;;;;;;;8.82;72.10;94428.75;4207167;28;20048;-70
2023/11/13 00:24:49;;;;;;;19.38;16.42;;;;;;;8.56;73.07;94423.56;4202790;28;20048;-69
2023/11/13 00:26:51;;;;;;;19.85;16.10;;;;;;;8.12;74.69;94436.56;4210001;28;20425;-68
2023/11/13 00:28:53;;;;;;;19.45;15.57;;;;;;;8.06;75.26;94442.38;4205148;28;20597;-67
2023/11/13 00:30:56;;;;;;;20.52;17.55;;;;;;;8.06;75.58;94452.00;4208522;28;20107;-69
2023/11/13 00:32:58;;;;;;;21.30;17.20;;;;;;;8.00;76.06;94450.78;4209013;28;20531;-68
2023/11/13 00:35:00;;;;;;;20.70;17.63;;;;;;;8.10;76.83;94443.72;4201447;28;20131;-69
2023/11/13 00:37:04;;;;;;;20.92;17.27;;;;;;;8.18;76.16;94432.53;4204364;28;20056;-70
2023/11/13 00:39:10;;;;;;;20.75;16.90;;;;;;;8.09;75.65;94443.88;4212599;28;20522;-68
2023/11/13 00:41:13;;;;;;;19.42;17.08;;;;;;;8.15;75.94;94441.50;4210498;28;20048;-69
2023/11/13 00:43:16;;;;;;;21.45;17.50;;;;;;;8.19;75.75;94442.84;4204972;28;20090;-69
2023/11/13 00:45:18;;;;;;;23.77;19.08;;;;;;;8.12;75.25;94456.63;4205195;28;20056;-69
2023/11/13 00:47:20;;;;;;;21.10;18.33;;;;;;;8.03;76.19;94450.50;4192846;28;20087;-69
2023/11/13 00:49:23;;;;;;;22.85;17.75;;;;;;;7.88;76.48;94446.78;4209113;28;20048;-69
2023/11/13 00:51:25;;;;;;;25.33;20.75;;;;;;;7.63;77.99;94440.50;4190639;28;20380;-68
2023/11/13 00:53:35;;;;;;;26.88;23.60;;;;;;;7.45;79.52;94441.28;4203825;28;20490;-69
2023/11/13 00:55:40;;;;;;;28.88;25.63;;;;;;;7.53;79.61;94427.53;4201844;28;20102;-70
2023/11/13 00:57:42;;;;;;;29.33;24.73;;;;;;;7.70;79.92;94428.50;4202159;28;20052;-68
2023/11/13 00:59:43;;;;;;;34.75;28.42;;;;;;;7.68;79.59;94426.06;4210335;28;20524;-70
2023/11/13 01:01:47;;;;;;;35.25;28.48;;;;;;;7.53;79.82;94432.75;4212710;28;20059;-70
2023/11/13 01:03:49;;;;;;;;;;;;;;;7.08;81.32;94438.75;4204507;28;20402;-69
2023/11/13 01:05:51;;;;;;;36.78;32.20;;;;;;;6.92;82.39;94444.56;4215481;28;20409;-70
2023/11/13 01:07:53;;;;;;;43.83;35.78;;;;;;;6.71;83.20;94439.56;4214331;28;20138;-69
2023/11/13 01:09:55;;;;;;;49.00;37.15;;;;;;;6.71;84.26;94440.41;4204440;28;20060;-69
2023/11/13 01:11:57;;;;;;;47.22;37.65;;;;;;;6.79;84.67;94436.25;4229216;28;20044;-67
2023/11/13 01:14:00;;;;;;;48.28;38.38;;;;;;;6.71;84.63;94435.19;4201270;28;20055;-68
2023/11/13 01:16:02;;;;;;;49.85;40.78;;;;;;;6.63;85.20;94444.66;4209318;28;20133;-67
2023/11/13 01:18:04;;;;;;;48.63;40.75;;;;;;;6.50;85.63;94439.78;4204349;28;20060;-67
2023/11/13 01:20:08;;;;;;;48.17;39.80;;;;;;;6.63;85.89;94437.69;4201483;28;20056;-68
2023/11/13 01:22:11;;;;;;;49.03;40.30;;;;;;;6.78;85.78;94432.84;4206660;28;20474;-68
2023/11/13 01:24:13;;;;;;;43.97;36.03;;;;;;;6.85;85.27;94436.50;4208947;28;20051;-70
2023/11/13 01:26:15;;;;;;;43.53;35.55;;;;;;;7.03;85.60;94427.94;4204190;28;20059;-70
2023/11/13 01:28:16;;;;;;;46.55;37.78;;;;;;;7.17;84.36;94422.25;4206168;28;20143;-69
2023/11/13 01:30:18;;;;;;;40.40;34.60;;;;;;;7.31;84.46;94420.94;4208252;28;20047;-69
2023/11/13 01:32:20;;;;;;;46.95;36.95;;;;;;;7.28;82.75;94424.66;4187985;28;20053;-68
2023/11/13 01:34:22;;;;;;;41.40;35.40;;;;;;;6.91;82.75;94424.72;4210530;28;20052;-69
2023/11/13 01:36:24;;;;;;;44.25;37.47;;;;;;;6.84;83.36;94429.66;4207561;28;20048;-69
2023/11/13 01:38:26;;;;;;;46.40;37.30;;;;;;;6.88;84.21;94425.81;4213304;28;20394;-69
2023/11/13 01:40:31;;;;;;;42.42;35.58;;;;;;;7.00;84.59;94420.41;4208356;28;20045;-68
2023/11/13 01:42:33;;;;;;;44.28;36.08;;;;;;;7.08;84.45;94415.31;4209175;28;20105;-68
2023/11/13 01:44:36;;;;;;;42.13;35.75;;;;;;;7.28;83.97;94421.22;4196274;28;20551;-70
2023/11/13 01:46:40;;;;;;;45.15;38.47;;;;;;;7.16;83.06;94415.38;4211350;28;20051;-68
2023/11/13 01:48:43;;;;;;;39.85;35.05;;;;;;;7.13;83.75;94420.91;4212799;28;20071;-69
2023/11/13 01:50:45;;;;;;;40.87;34.97;;;;;;;7.26;83.70;94421.38;4210066;28;20056;-69
2023/11/13 01:52:47;;;;;;;41.30;34.55;;;;;;;7.41;82.84;94426.91;4207571;28;20296;-70
2023/11/13 01:54:50;;;;;;;37.33;33.28;;;;;;;7.57;82.83;94428.84;4208766;28;20060;-68
2023/11/13 01:56:53;;;;;;;37.15;31.92;;;;;;;7.67;81.67;94421.00;4199211;28;20234;-69
2023/11/13 01:58:57;;;;;;;38.50;32.72;;;;;;;7.76;81.36;94420.91;4212013;28;20063;-68
2023/11/13 02:00:59;;;;;;;38.38;30.70;;;;;;;7.85;80.43;94411.41;4207926;28;20463;-71
2023/11/13 02:03:04;;;;;;;32.25;28.30;;;;;;;7.92;79.47;94409.00;4208919;28;20586;-69
2023/11/13 02:05:06;;;;;;;33.20;29.17;;;;;;;8.02;79.23;94414.94;4214273;28;20514;-70
2023/11/13 02:07:08;;;;;;;33.83;29.92;;;;;;;8.09;78.86;94417.78;4211015;28;20101;-69
2023/11/13 02:09:16;;;;;;;33.92;27.33;;;;;;;8.08;77.97;94421.34;4209233;28;20098;-69
2023/11/13 02:11:19;;;;;;;30.65;27.25;;;;;;;8.12;78.71;94422.69;4196957;28;20063;-69
2023/11/13 02:13:21;;;;;;;35.67;27.90;;;;;;;8.19;77.49;94419.34;4197826;28;20481;-68
2023/11/13 02:15:24;;;;;;;32.45;27.65;;;;;;;8.25;77.59;94409.25;4194838;28;20068;-69
2023/11/13 02:17:26;;;;;;;33.75;27.58;;;;;;;8.29;77.66;94413.22;4211488;28;20387;-71
2023/11/13 02:19:27;;;;;;;34.22;26.90;;;;;;;8.31;77.57;94411.28;4208846;28;20517;-69
2023/11/13 02:21:32;;;;;;;32.78;26.52;;;;;;;8.35;77.66;94415.22;4214054;28;20047;-68
2023/11/13 02:23:34;;;;;;;32.60;26.02;;;;;;;8.41;76.92;94414.66;4204945;28;20114;-68
2023/11/13 02:25:37;;;;;;;29.52;25.67;;;;;;;8.48;76.62;94420.88;4210308;28;20126;-70
2023/11/13 02:27:40;;;;;;;33.53;26.17;;;;;;;8.48;76.56;94425.28;4205518;28;20131;-70
2023/11/13 02:29:43;;;;;;;33.17;26.17;;;;;;;8.52;76.18;94424.81;4209770;28;20460;-70
2023/11/13 02:31:51;;;;;;;;;;;;;;;8.53;75.61;94421.22;4208342;28;20407;-71
2023/11/13 02:33:54;;;;;;;33.67;26.52;;;;;;;8.53;75.97;94421.22;4204774;28;19999;-70
2023/11/13 02:35:56;;;;;;;33.03;26.85;;;;;;;8.57;76.20;94421.75;4197900;28;20084;-70
2023/11/13 02:37:58;;;;;;;31.33;25.98;;;;;;;8.54;75.61;94419.44;4211318;28;20080;-70
2023/11/13 02:40:00;;;;;;;30.45;26.35;;;;;;;8.58;76.00;94416.38;4207804;28;20040;-68
2023/11/13 02:42:02;;;;;;;29.95;25.42;;;;;;;8.66;75.97;94420.00;4205658;28;20409;-69
2023/11/13 02:44:04;;;;;;;33.35;26.98;;;;;;;8.68;75.88;94407.63;4211655;28;20044;-70
2023/11/13 02:46:06;;;;;;;33.83;25.10;;;;;;;8.71;75.72;94418.59;4210832;28;20091;-71
2023/11/13 02:48:08;;;;;;;33.08;27.33;;;;;;;8.75;75.85;94414.66;4210430;28;20112;-69
2023/11/13 02:50:11;;;;;;;34.13;27.92;;;;;;;8.76;75.11;94420.72;4212241;28;20119;-69
2023/11/13 02:52:15;;;;;;;34.58;28.33;;;;;;;8.75;75.11;94425.09;4208007;28;20048;-68
2023/11/13 02:54:19;;;;;;;31.77;28.17;;;;;;;8.77;75.03;94422.34;4205952;28;20478;-69
2023/11/13 02:56:22;;;;;;;33.47;27.45;;;;;;;8.77;75.92;94428.38;4213308;28;20460;-69
2023/11/13 02:58:23;;;;;;;33.55;27.08;;;;;;;8.76;75.94;94431.19;4212679;28;20151;-68
2023/11/13 03:00:26;;;;;;;32.33;26.83;;;;;;;8.74;75.36;94427.91;4210730;28;20060;-68
2023/11/13 03:02:27;;;;;;;32.80;27.92;;;;;;;8.75;75.65;94424.31;4204924;28;20053;-70
2023/11/13 03:04:30;;;;;;;33.15;28.52;;;;;;;8.77;75.33;94427.56;4199557;28;20076;-69
2023/11/13 03:06:32;;;;;;;36.85;28.88;;;;;;;8.76;75.27;94424.16;4211673;28;20054;-68
2023/11/13 03:08:34;;;;;;;37.03;31.17;;;;;;;8.81;75.14;94421.06;4211059;28;20058;-68
2023/11/13 03:10:36;;;;;;;35.72;29.77;;;;;;;8.77;75.55;94423.16;4203625;28;20050;-69
2023/11/13 03:12:41;;;;;;;35.33;29.45;;;;;;;8.79;75.33;94416.00;4203860;28;20147;-69
2023/11/13 03:14:43;;;;;;;34.65;28.58;;;;;;;8.80;74.86;94417.66;4210384;28;20044;-70
2023/11/13 03:16:45;;;;;;;32.88;28.15;;;;;;;8.83;75.64;94421.75;4198357;28;20130;-69
2023/11/13 03:18:48;;;;;;;32.92;26.50;;;;;;;8.79;75.16;94430.84;4214732;28;20055;-69
2023/11/13 03:20:51;;;;;;;29.80;25.77;;;;;;;8.73;74.69;94432.31;4212840;28;20048;-68
2023/11/13 03:22:53;;;;;;;29.85;25.55;;;;;;;8.60;74.77;94437.09;4192486;28;20102;-68
2023/11/13 03:24:55;;;;;;;30.50;25.80;;;;;;;8.53;75.85;94430.84;4211199;28;20188;-69
2023/11/13 03:26:57;;;;;;;32.35;26.73;;;;;;;8.58;76.29;94433.81;4213147;28;20063;-70
2023/11/13 03:29:00;;;;;;;32.42;27.17;;;;;;;8.64;76.35;94442.84;4200156;28;20502;-68
2023/11/13 03:31:02;;;;;;;34.58;27.15;;;;;;;8.52;75.86;94437.88;4212918;28;20059;-70
2023/11/13 03:33:04;;;;;;;36.80;30.40;;;;;;;7.86;77.57;94444.31;4210824;28;20051;-69
2023/11/13 03:35:07;;;;;;;37.00;30.27;;;;;;;7.35;80.74;94450.94;4198817;28;20045;-70
2023/11/13 03:37:08;;;;;;;54.95;43.60;;;;;;;6.85;83.13;94454.72;4194331;28;20045;-69
2023/11/13 03:39:15;;;;;;;45.00;35.10;;;;;;;6.74;84.32;94455.72;4206933;28;20048;-70
2023/11/13 03:41:16;;;;;;;50.08;35.65;;;;;;;6.40;85.63;94462.38;4211241;28;20052;-70
2023/11/13 03:43:19;;;;;;;45.85;36.63;;;;;;;6.16;87.23;94458.44;4206957;28;20070;-69
2023/11/13 03:45:21;;;;;;;47.50;38.45;;;;;;;6.24;87.87;94466.38;4196147;28;20475;-67
2023/11/13 03:47:23;;;;;;;53.15;38.72;;;;;;;6.17;88.37;94470.47;4208955;28;20044;-69
2023/11/13 03:49:25;;;;;;;45.92;38.28;;;;;;;6.15;88.70;94477.56;4196515;28;20057;-67
2023/11/13 03:51:27;;;;;;;47.10;39.10;;;;;;;6.26;88.47;94472.25;4200967;28;20055;-66
2023/11/13 03:53:29;;;;;;;50.47;38.92;;;;;;;6.34;88.17;94476.75;4211480;28;20131;-69
2023/11/13 03:55:30;;;;;;;58.88;38.65;;;;;;;6.24;88.33;94471.56;4196959;28;20052;-69
2023/11/13 03:57:33;;;;;;;50.05;39.92;;;;;;;6.26;88.41;94468.81;4198979;28;20052;-68
2023/11/13 03:59:34;;;;;;;50.97;39.63;;;;;;;6.41;88.55;94467.44;4211180;28;20059;-69
2023/11/13 04:01:37;;;;;;;48.58;39.05;;;;;;;6.55;87.92;94463.56;4210898;28;20098;-70
2023/11/13 04:03:38;;;;;;;52.35;40.55;;;;;;;6.45;87.49;94466.19;4212141;28;20478;-66
2023/11/13 04:05:41;;;;;;;52.88;41.20;;;;;;;6.55;87.51;94469.59;4210886;28;20853;-68
2023/11/13 04:07:44;;;;;;;50.17;40.83;;;;;;;6.53;87.05;94463.72;4211516;28;20056;-71
2023/11/13 04:09:46;;;;;;;51.13;40.78;;;;;;;6.51;86.95;94465.63;4212090;28;20044;-69
2023/11/13 04:11:49;;;;;;;52.53;41.45;;;;;;;6.60;87.17;94465.75;4212215;28;20495;-70
2023/11/13 04:13:51;;;;;;;53.60;41.10;;;;;;;6.66;86.67;94466.00;4209420;28;20478;-69
2023/11/13 04:15:53;;;;;;;48.50;38.83;;;;;;;6.75;86.61;94459.97;4211838;28;20047;-68
2023/11/13 04:17:55;;;;;;;49.05;39.60;;;;;;;6.66;86.72;94463.41;4210929;28;20048;-69
2023/11/13 04:19:57;;;;;;;58.40;41.40;;;;;;;6.48;86.28;94460.72;4200435;28;20607;-69
2023/11/13 04:21:59;;;;;;;55.78;41.55;;;;;;;6.48;86.79;94467.72;4207029;28;20055;-67
2023/11/13 04:24:01;;;;;;;50.40;39.30;;;;;;;6.53;86.58;94465.50;4212735;28;20043;-69
2023/11/13 04:26:04;;;;;;;52.38;39.08;;;;;;;6.73;87.05;94464.50;4203210;28;20135;-68
2023/11/13 04:28:06;;;;;;;54.25;39.42;;;;;;;6.83;86.59;94471.47;4208070;28;20079;-69
2023/11/13 04:30:08;;;;;;;50.22;37.50;;;;;;;7.00;86.32;94473.31;4203149;28;20105;-69
2023/11/13 04:32:10;;;;;;;49.38;36.85;;;;;;;7.15;85.93;94478.88;4205372;28;20116;-69
2023/11/13 04:34:12;;;;;;;49.10;36.15;;;;;;;7.33;85.13;94477.13;4210021;28;20044;-70
2023/11/13 04:36:14;;;;;;;47.15;35.67;;;;;;;7.42;84.31;94475.47;4206637;28;20648;-70
2023/11/13 04:38:16;;;;;;;46.67;34.83;;;;;;;7.54;83.82;94470.88;4210326;28;20052;-70
2023/11/13 04:40:18;;;;;;;46.00;34.40;;;;;;;7.63;82.57;94471.78;4211049;28;20040;-70
2023/11/13 04:42:21;;;;;;;44.08;34.72;;;;;;;7.71;81.68;94475.28;4210931;28;20097;-69
2023/11/13 04:44:23;;;;;;;44.88;34.03;;;;;;;7.83;81.00;94481.13;4208898;28;20143;-66
2023/11/13 04:46:25;;;;;;;43.25;33.95;;;;;;;7.89;80.80;94484.94;4205846;28;20071;-70
2023/11/13 04:48:27;;;;;;;44.35;32.40;;;;;;;7.97;79.86;94488.44;4186807;28;20538;-69
2023/11/13 04:50:29;;;;;;;46.30;33.53;;;;;;;8.02;79.98;94492.38;4210665;28;20063;-69
2023/11/13 04:52:32;;;;;;;44.13;31.88;;;;;;;8.08;79.99;94495.22;4208034;28;20252;-67
2023/11/13 04:54:34;;;;;;;45.65;31.40;;;;;;;8.14;79.58;94505.06;4205354;28;20491;-70
2023/11/13 04:56:36;;;;;;;41.35;32.13;;;;;;;8.23;78.95;94510.38;4211986;28;20479;-70
2023/11/13 04:58:41;;;;;;;41.22;30.88;;;;;;;8.29;78.03;94515.81;4211720;28;20044;-68
2023/11/13 05:00:43;;;;;;;40.78;31.10;;;;;;;8.28;77.59;94522.00;4211373;28;20101;-71
2023/11/13 05:02:45;;;;;;;40.60;30.13;;;;;;;8.33;77.77;94524.16;4210415;28;20044;-69
2023/11/13 05:04:47;;;;;;;40.95;31.75;;;;;;;8.36;77.46;94521.25;4211128;28;20266;-71
2023/11/13 05:06:49;;;;;;;41.55;31.02;;;;;;;8.35;78.31;94527.44;4201628;28;20053;-73
2023/11/13 05:08:51;;;;;;;44.75;31.33;;;;;;;8.39;78.23;94529.59;4209150;28;20055;-71
2023/11/13 05:10:53;;;;;;;43.63;31.52;;;;;;;8.45;77.34;94533.41;4202321;28;20114;-69
2023/11/13 05:12:55;;;;;;;40.53;30.25;;;;;;;8.48;76.88;94532.31;4212839;28;20074;-69
2023/11/13 05:14:57;;;;;;;43.90;31.40;;;;;;;8.46;76.48;94536.88;4205864;28;20135;-70
2023/11/13 05:16:59;;;;;;;41.00;29.67;;;;;;;8.48;76.61;94540.97;4199366;28;20463;-71
2023/11/13 05:19:03;;;;;;;41.97;31.08;;;;;;;8.48;76.69;94546.19;4208381;28;20221;-70
2023/11/13 05:21:05;;;;;;;43.35;31.50;;;;;;;8.50;77.22;94552.09;4199089;28;20075;-70
2023/11/13 05:23:07;;;;;;;45.80;30.75;;;;;;;8.52;77.01;94554.56;4202218;28;20137;-71
2023/11/13 05:25:09;;;;;;;42.80;32.15;;;;;;;8.52;76.12;94562.38;4203860;28;20052;-71
2023/11/13 05:27:13;;;;;;;43.00;31.35;;;;;;;8.50;76.59;94565.13;4184506;28;20575;-72
2023/11/13 05:29:16;;;;;;;40.22;30.27;;;;;;;8.53;76.20;94561.41;4225274;28;20054;-73
2023/11/13 05:31:19;;;;;;;41.28;30.75;;;;;;;8.52;76.86;94576.25;4207753;28;20056;-70
2023/11/13 05:33:22;;;;;;;41.60;31.15;;;;;;;8.58;76.14;94577.44;4201252;28;20048;-73
2023/11/13 05:35:25;;;;;;;;;;;;;;;8.54;76.70;94578.69;4208037;28;20044;-69
2023/11/13 05:37:27;;;;;;;39.55;29.13;;;;;;;8.57;75.87;94584.44;4199830;28;19920;-71
2023/11/13 05:39:29;;;;;;;43.85;30.00;;;;;;;8.60;76.19;94584.16;4210454;28;20386;-71
2023/11/13 05:41:32;;;;;;;40.22;29.77;;;;;;;8.64;75.76;94583.84;4202717;28;20503;-70
2023/11/13 05:43:34;;;;;;;42.05;31.20;;;;;;;8.69;75.49;94590.28;4206503;28;20487;-69
2023/11/13 05:45:36;;;;;;;37.92;28.08;;;;;;;8.73;75.55;94590.78;4213473;28;20511;-71
2023/11/13 05:47:38;;;;;;;39.30;28.55;;;;;;;8.77;75.55;94594.72;4212602;28;20079;-72
2023/11/13 05:49:40;;;;;;;41.58;29.65;;;;;;;8.79;75.08;94587.56;4208181;28;20106;-74
2023/11/13 05:51:42;;;;;;;37.47;27.40;;;;;;;8.84;75.16;94585.34;4209768;28;20093;-71
2023/11/13 05:53:44;;;;;;;39.67;30.05;;;;;;;8.84;74.66;94585.34;4212329;28;20050;-71
2023/11/13 05:55:47;;;;;;;42.60;30.77;;;;;;;8.71;75.20;94585.72;4199819;28;20051;-70
2023/11/13 05:57:50;;;;;;;37.93;28.67;;;;;;;8.47;75.70;94588.09;4204636;28;20173;-71
2023/11/13 05:59:52;;;;;;;41.75;29.60;;;;;;;8.31;76.00;94583.53;4214273;28;20052;-71
2023/11/13 06:01:54;;;;;;;42.58;30.15;;;;;;;8.35;77.04;94588.28;4210638;28;20048;-71
2023/11/13 06:03:55;;;;;;;40.40;30.17;;;;;;;8.43;76.79;94586.75;4204103;28;20036;-72
2023/11/13 06:05:58;;;;;;;37.72;27.67;;;;;;;8.49;77.07;94592.19;4230253;28;20048;-71
2023/11/13 06:08:00;;;;;;;40.33;28.00;;;;;;;8.50;76.01;94582.59;4213191;28;20113;-72
2023/11/13 06:10:06;;;;;;;35.47;24.55;;;;;;;8.52;76.49;94585.88;4214012;28;20075;-70
2023/11/13 06:12:11;;;;;;;33.25;25.65;;;;;;;8.66;75.96;94587.13;4214226;28;20056;-71
2023/11/13 06:14:13;;;;;;;31.23;24.48;;;;;;;8.80;75.17;94589.22;4208051;28;20066;-71
2023/11/13 06:16:16;;;;;;;35.03;25.13;;;;;;;8.93;74.50;94588.84;4204778;28;20048;-71
2023/11/13 06:18:18;;;;;;;32.50;24.67;;;;;;;9.07;75.19;94590.06;4205790;28;20532;-70
2023/11/13 06:20:20;;;;;;;32.92;24.42;;;;;;;8.97;73.72;94591.00;4205200;28;20048;-70
2023/11/13 06:22:22;;;;;;;29.92;23.20;;;;;;;8.88;74.13;94596.28;4189236;28;20531;-71
2023/11/13 06:24:24;;;;;;;31.02;23.63;;;;;;;8.85;74.37;94600.03;4206124;28;20048;-72
2023/11/13 06:26:27;;;;;;;29.30;22.02;;;;;;;8.90;73.84;94610.03;4203949;28;20504;-72
2023/11/13 06:28:29;;;;;;;28.77;23.53;;;;;;;9.00;74.09;94600.31;4203880;28;20045;-71
2023/11/13 06:30:31;;;;;;;33.72;24.45;;;;;;;9.17;74.12;94601.25;4198229;28;20285;-71
2023/11/13 06:32:34;;;;;;;39.45;29.30;;;;;;;9.24;73.70;94597.06;4202100;28;20155;-75
2023/11/13 06:34:36;;;;;;;;;;;;;;;9.27;73.99;94598.53;4213820;28;20048;-72
2023/11/13 06:36:45;;;;;;;43.88;32.90;;;;;;;9.32;74.11;94604.13;4208726;28;20471;-72
2023/11/13 06:38:47;;;;;;;45.67;34.47;;;;;;;9.30;73.95;94593.81;4207060;28;20486;-73
2023/11/13 06:40:53;;;;;;;48.17;34.72;;;;;;;9.30;73.94;94595.63;4213973;28;20051;-74
2023/11/13 06:42:56;;;;;;;45.30;33.55;;;;;;;8.99;74.03;94596.03;4200464;28;20119;-71
2023/11/13 06:44:58;;;;;;;49.40;35.60;;;;;;;8.66;75.61;94597.59;4198721;28;20337;-74
2023/11/13 06:47:01;;;;;;;52.70;35.78;;;;;;;8.50;76.67;94604.31;4224338;28;20578;-73
2023/11/13 06:49:03;;;;;;;46.72;33.97;;;;;;;8.60;76.33;94610.28;4214090;28;20499;-73
2023/11/13 06:51:08;;;;;;;44.65;33.92;;;;;;;8.75;76.55;94594.88;4200036;28;20081;-69
2023/11/13 06:53:11;;;;;;;47.83;34.63;;;;;;;8.63;76.03;94609.16;4185828;28;20075;-72
2023/11/13 06:55:13;;;;;;;49.20;36.00;;;;;;;8.57;76.89;94602.72;4206002;28;20052;-72
2023/11/13 06:57:16;;;;;;;47.60;35.08;;;;;;;8.75;76.92;94599.28;4209074;28;20055;-71
2023/11/13 06:59:18;;;;;;;46.78;33.65;;;;;;;8.89;76.22;94600.56;4201671;28;20493;-72
2023/11/13 07:01:20;;;;;;;49.00;36.13;;;;;;;8.91;76.53;94581.16;4210452;28;20407;-70
2023/11/13 07:03:22;;;;;;;46.55;34.97;;;;;;;9.07;76.29;94583.03;4201550;28;20728;-70
2023/11/13 07:05:24;;;;;;;44.85;33.83;;;;;;;9.16;76.51;94583.91;4202363;28;20102;-70
2023/11/13 07:07:28;;;;;;;41.35;31.27;;;;;;;9.25;75.24;94577.78;4214186;28;20048;-72
2023/11/13 07:09:30;;;;;;;42.25;30.95;;;;;;;9.34;75.49;94570.81;4212336;28;20067;-73
2023/11/13 07:11:32;;;;;;;37.85;29.08;;;;;;;9.47;74.67;94568.59;4203719;28;20059;-73
2023/11/13 07:13:34;;;;;;;37.95;29.40;;;;;;;9.57;74.29;94565.84;4204796;28;20045;-73
2023/11/13 07:15:37;;;;;;;41.15;31.13;;;;;;;9.64;73.33;94564.28;4213838;28;20055;-73
2023/11/13 07:17:39;;;;;;;;;;;;;;;9.76;73.47;94564.81;4208228;28;20541;-71
2023/11/13 07:19:42;;;;;;;40.45;31.02;;;;;;;9.92;73.13;94556.22;4199440;28;19947;-71
2023/11/13 07:21:44;;;;;;;39.25;29.77;;;;;;;9.99;72.95;94557.22;4198667;28;20591;-71
2023/11/13 07:23:45;;;;;;;39.50;30.15;;;;;;;10.03;72.13;94561.16;4211181;28;20040;-71
2023/11/13 07:25:48;;;;;;;35.05;28.80;;;;;;;10.10;72.38;94564.75;4207954;28;20131;-71
2023/11/13 07:27:51;;;;;;;35.38;26.60;;;;;;;9.76;71.51;94581.31;4206338;28;20054;-70
2023/11/13 07:29:54;;;;;;;34.70;27.65;;;;;;;9.84;72.59;94583.97;4207813;28;20138;-72
2023/11/13 07:31:57;;;;;;;37.13;27.73;;;;;;;9.92;72.19;94585.81;4205505;28;20040;-72
2023/11/13 07:34:00;;;;;;;35.15;27.88;;;;;;;10.06;72.81;94576.53;4202920;28;20082;-72
2023/11/13 07:36:04;;;;;;;34.88;27.85;;;;;;;10.06;71.22;94576.53;4211028;28;20051;-72
2023/11/13 07:38:07;;;;;;;39.90;29.35;;;;;;;10.19;71.48;94570.84;4212878;28;20043;-73
2023/11/13 07:40:13;;;;;;;37.63;29.83;;;;;;;10.31;71.46;94584.50;4212082;28;20052;-71
2023/11/13 07:42:15;;;;;;;32.85;26.85;;;;;;;10.01;70.89;94584.84;4213174;28;20327;-72
2023/11/13 07:44:17;;;;;;;33.30;26.13;;;;;;;9.79;71.83;94580.22;4210312;28;20044;-71
2023/11/13 07:46:19;;;;;;;33.03;26.55;;;;;;;9.70;71.44;94576.72;4202126;28;20144;-70
2023/11/13 07:48:24;;;;;;;37.53;25.80;;;;;;;9.70;71.58;94581.97;4203112;28;20507;-72
2023/11/13 07:50:27;;;;;;;30.38;23.67;;;;;;;9.97;71.51;94583.53;4209342;28;20048;-72
2023/11/13 07:52:31;;;;;;;28.98;23.15;;;;;;;10.32;71.20;94583.50;4200566;28;20055;-72
2023/11/13 07:54:33;;;;;;;32.53;24.05;;;;;;;10.58;70.20;94589.47;4211502;28;20048;-71
2023/11/13 07:56:36;;;;;;;33.45;24.05;;;;;;;10.80;69.33;94590.63;4203338;28;20061;-70
2023/11/13 07:58:38;;;;;;;29.75;23.17;;;;;;;11.08;68.93;94585.06;4210869;28;20054;-73
2023/11/13 08:00:40;;;;;;;32.38;26.05;;;;;;;11.15;67.85;94587.84;4199803;28;20105;-72
2023/11/13 08:02:42;;;;;;;32.53;26.30;;;;;;;11.26;67.36;94590.13;4206244;28;20052;-73
2023/11/13 08:04:46;;;;;;;36.25;26.65;;;;;;;11.21;67.17;94582.75;4197715;28;20048;-73
2023/11/13 08:06:48;;;;;;;34.40;26.73;;;;;;;10.81;67.08;94580.97;4210454;28;20048;-71
2023/11/13 08:08:50;;;;;;;33.80;25.70;;;;;;;10.65;68.26;94585.22;4204513;28;20048;-72
2023/11/13 08:10:53;;;;;;;31.27;25.30;;;;;;;10.65;68.21;94593.06;4197824;28;20458;-72
2023/11/13 08:12:55;;;;;;;30.05;24.35;;;;;;;10.60;68.26;94584.88;4218276;28;20391;-70
2023/11/13 08:14:58;;;;;;;33.88;24.17;;;;;;;10.70;68.65;94579.47;4203075;28;20045;-72
2023/11/13 08:17:02;;;;;;;32.40;24.75;;;;;;;10.85;67.87;94571.78;4211076;28;20055;-71
2023/11/13 08:19:05;;;;;;;33.72;25.23;;;;;;;10.73;67.94;94573.09;4227646;28;20043;-72
2023/11/13 08:21:10;;;;;;;33.08;25.15;;;;;;;10.78;68.35;94570.81;4205495;28;20052;-71
2023/11/13 08:23:13;;;;;;;35.75;25.08;;;;;;;10.88;68.38;94568.03;4209127;28;20090;-72
2023/11/13 08:25:17;;;;;;;31.58;24.48;;;;;;;10.99;67.88;94568.53;4207547;28;20047;-72
2023/11/13 08:27:19;;;;;;;32.08;24.90;;;;;;;10.89;67.46;94565.25;4206591;28;20053;-74
2023/11/13 08:29:21;;;;;;;34.33;24.65;;;;;;;10.93;67.44;94566.56;4211455;28;20056;-71
2023/11/13 08:31:26;;;;;;;27.27;19.15;;;;;;;11.07;66.12;94571.13;4197694;28;20052;-71
2023/11/13 08:33:29;;;;;;;26.48;20.70;;;;;;;11.09;66.04;94557.84;4201913;28;20510;-70
2023/11/13 08:35:31;;;;;;;28.80;21.35;;;;;;;11.12;65.09;94552.28;4210193;28;20440;-73
2023/11/13 08:37:33;;;;;;;25.10;19.25;;;;;;;10.91;66.03;94555.41;4200207;28;20048;-71
2023/11/13 08:39:38;;;;;;;24.63;18.98;;;;;;;11.07;66.17;94559.81;4209516;28;20536;-73
2023/11/13 08:41:39;;;;;;;;;;;;;;;11.13;65.43;94556.53;4208812;28;20143;-72
2023/11/13 08:43:44;;;;;;;24.75;19.75;;;;;;;11.20;64.87;94554.06;4205201;28;20247;-71
2023/11/13 08:45:46;;;;;;;23.40;18.63;;;;;;;11.16;65.25;94552.75;4209947;28;20074;-73
2023/11/13 08:48:01;;;;;;;28.48;20.42;;;;;;;11.15;65.27;94559.81;4210354;28;20103;-72
2023/11/13 08:50:04;;;;;;;27.45;21.63;;;;;;;10.82;65.92;94561.66;4203188;28;20068;-72
2023/11/13 08:52:08;;;;;;;27.02;21.52;;;;;;;10.69;66.57;94569.16;4204962;28;20067;-72
2023/11/13 08:54:11;;;;;;;31.00;21.98;;;;;;;10.85;66.33;94550.81;4210904;28;20464;-74
2023/11/13 08:56:15;;;;;;;23.88;19.40;;;;;;;11.13;65.91;94558.34;4206328;28;20044;-72
2023/11/13 08:58:18;;;;;;;27.55;20.88;;;;;;;11.32;64.89;94563.22;4203447;28;20041;-72
2023/11/13 09:00:20;;;;;;;30.00;21.27;;;;;;;11.48;64.64;94563.19;4204704;28;20139;-75
2023/11/13 09:02:25;;;;;;;30.02;22.52;;;;;;;11.56;64.05;94561.53;4206265;28;20053;-72
2023/11/13 09:04:28;;;;;;;29.45;22.35;;;;;;;11.38;64.32;94561.72;4204779;28;20055;-72
2023/11/13 09:06:34;;;;;;;34.22;25.15;;;;;;;11.17;65.25;94568.34;4205414;28;20165;-72
2023/11/13 09:08:36;;;;;;;31.88;24.25;;;;;;;11.21;66.11;94574.06;4208567;28;20576;-72
2023/11/13 09:10:44;;;;;;;31.83;24.65;;;;;;;11.42;64.64;94571.75;4206360;28;20083;-73
2023/11/13 09:12:47;;;;;;;30.67;23.08;;;;;;;11.34;64.32;94576.19;4196731;28;20462;-73
2023/11/13 09:14:49;;;;;;;33.65;23.98;;;;;;;11.13;65.75;94584.56;4204967;28;20074;-74
2023/11/13 09:16:50;;;;;;;33.72;24.08;;;;;;;10.89;66.53;94582.78;4214121;28;20464;-72
2023/11/13 09:18:54;;;;;;;32.15;24.73;;;;;;;10.83;66.34;94579.00;4209416;28;20044;-72
2023/11/13 09:20:56;;;;;;;33.53;24.45;;;;;;;10.98;66.25;94579.16;4212225;28;20040;-72
2023/11/13 09:23:03;;;;;;;30.60;23.13;;;;;;;11.36;66.28;94580.28;4208903;28;20495;-71
2023/11/13 09:25:07;;;;;;;32.13;24.35;;;;;;;11.77;65.17;94582.78;4208884;28;20077;-72
2023/11/13 09:27:09;;;;;;;26.58;21.88;;;;;;;11.58;63.51;94581.38;4214145;28;20048;-73
2023/11/13 09:29:11;;;;;;;28.42;22.05;;;;;;;11.58;63.64;94588.44;4215185;28;20145;-70